Arthur, ND

8:16 PM CDT on July 22, 2014 (GMT -0500)
Home of the Absaraka Crows (KNDABSAR2) Elev 1066 ft | 46.98 °N, 97.39 °W | Change Station

Current weather conditions updated 10 seconds ago

Clear
Clear
73.6 °F
Feels Like 76 °F
N
0.0
Wind Variable Wind from NE
Gusts 1.6 mph

Tomorrow is forecast to be Cooler than today.

Today
High -- | Low -- °F
--% Chance of Precip.
Yesterday
High -- | Low -- °F
Precip. -- in
5:56 AM 9:13 PM
Waning Crescent, 14% visible
Pressure 30.19 in
Visibility 10.0 miles
Clouds Clear
Heat Index 76 °F
Dew Point 62 °F
Humidity 67%
Rainfall 0.06 in
Snow Depth Not available.
UV 1 out of 12
Pollen 4.00 out of 12
Air Quality Not available.
Flu Activity Not available.
METAR KFAR 230053Z 01009KT 10SM CLR 24/14 A3019 RMK AO2 SLP221 T02390139

More Conditions Fewer Conditions

Pressure 30.19 in
Visibility 10.0 miles
Clouds Clear
Heat Index 76 °F
Dew Point 62 °F
Humidity 67%
Rainfall 0.06 in
Snow Depth Not available.
UV 1 out of 12
Pollen 4.00 out of 12
Air Quality Not available.
Flu Activity Not available.
METAR KFAR 230053Z 01009KT 10SM CLR 24/14 A3019 RMK AO2 SLP221 T02390139

More Conditions Fewer Conditions

10-Day Weather Forecast

Almanac

Astronomy

Jul. 22, 2014 Rise Set
Actual Time 5:56 AM CDT 9:13 PM CDT
Civil Twilight 5:18 AM CDT 9:50 PM CDT
Nautical Twilight 4:30 AM CDT 10:39 PM CDT
Astronomical Twilight 3:28 AM CDT 11:40 PM CDT
Moon 2:33 AM CDT (7/22) 5:50 PM CDT (7/22)
Length of Visible Light 16h 31m
Length of Day
15h 17m
Tomorrow will be 2m 13s shorter.
Waning Crescent, 14% of the Moon is Illuminated
Today
Waning Crescent
Jul 26
New
Aug 3
First Quarter
Aug 10
Full
Aug 17
Last Quarter

Today's Extremes

State Highs State Lows

Community

WunderPhotos

Upload Photos

1,736,423 photos uploaded!

Nearby

Snow Depth

Station Depth Elevation
No new snow has been reported.

Earthquake Activity

City Distance Mag. Time & Date
No recent earthquake activity has been reported nearby.
Minimum magnitude displayed is 2.5.

Coastal Water Temperatures

Place Temperature
No Stations Reporting

Nearby Weather Stations

Station Location Temp. Heat Index Dew Point Humidity Wind Precip. Elev Updated Type
Home of the Absaraka Crows, Absaraka, ND 73.6 °F 76 °F 62 °F 67% NE  at  0.0 mph 0.00 in / hr 1066 ft 8:16 PM CDT Rapid Fire
Harwood, ND, Harwood, ND 72.2 °F 76 °F 57 °F 59% NE  at  2.0 mph 0.00 in / hr 879 ft 8:14 PM CDT Normal
Westport Beach, West Fargo, ND 75.9 °F 78 °F 59 °F 56% NE  at  6.8 mph - / hr 896 ft 8:02 PM CDT Normal
EagleRun/WestPortB Official, West Fargo, ND 77.7 °F 79 °F 59 °F 52% WSW  at  0.0 mph - / hr 892 ft 8:08 PM CDT Normal
Groovetones Central, Fargo, ND 73.9 °F 77 °F 57 °F 56% NNW  at  0.0 mph 0.00 in / hr 901 ft 8:16 PM CDT Rapid Fire
Country Club, Moorhead, MN 72.9 °F 76 °F 59 °F 62% NNE  at  4.0 mph 0.00 in / hr 901 ft 8:16 PM CDT Rapid Fire

Show More Stations Show Fewer Stations